Stonington, ME (04645)

8:30 AM EDT on August 26, 2016 (GMT -0400)
APRSWXNET | | Change Station

Elev 36 ft 44.08 °N, 68.63 °W | Updated 32 minutes ago

Clear
Clear
66 °F
Feels Like 66 °F
N
8
Wind Variable Wind from WSW
Gusts 14.0 mph

Today
High -- | Low -- °F
--% Chance of Precip.
Yesterday
High -- | Low -- °F
Precip. -- in
Pressure 29.93 in
Visibility 10.0 miles
Clouds Clear
Dew Point 65 °F
Humidity 95%
Rainfall in
Snow Depth Not available.
5:51 AM 7:20 PM
Waning Crescent, 35% visible
METAR KRKD 261156Z AUTO 27005KT 10SM CLR 21/19 A2992 RMK AO2 SLP133 60002 70008 T02110189 10211 20200 50003
Pressure 29.93 in
Visibility 10.0 miles
Clouds Clear
Dew Point 65 °F
Humidity 95%
Rainfall in
Snow Depth Not available.
5:51 AM 7:20 PM
Waning Crescent, 35% visible
METAR KRKD 261156Z AUTO 27005KT 10SM CLR 21/19 A2992 RMK AO2 SLP133 60002 70008 T02110189 10211 20200 50003

10-Day Weather Forecast

Almanac

Astronomy

Aug. 26, 2016 Rise Set
Actual Time
Civil Twilight
Nautical Twilight
Astronomical Twilight
Moon
Length of Visible Light
Length of Day
Tomorrow will be .
, % of the Moon is Illuminated

Today's Extremes

State Highs State Lows

Community

WunderPhotos

Upload Photos

1,935,080 photos uploaded!

WunderBlog® & News

Nearby

Air Quality

  Air Quality AQ Index Pollutant
Not available.

Snow Depth

Station Depth Elevation

Earthquake Activity

City Distance Mag. Time & Date
Minimum magnitude displayed is 2.5.

Coastal Water Temperatures

Place Temperature

Stations

Nearby Weather Stations

Station Location Temp. Windchill Dew Point Humidity Wind Precip. Elev Updated Type
                   

Watches & Warnings

There are currently no watches in effect.